Time;durP1;ratioP1;P1;durP2;ratioP2;P2;SDS_P1;SDS_P2;PMS_P1;PMS_P2;Temp;Humidity;BMP_temperature;BMP_pressure;BME280_temperature;BME280_humidity;BME280_pressure;Samples;Min_cycle;Max_cycle;Signal;HPM_P1;HPM_P2
2024/02/13 00:01:56;;;;;;;8.57;2.00;;;8.10;99.90;;;;;;5106094;28;20048;-46
2024/02/13 00:04:21;;;;;;;5.25;1.60;;;8.10;99.90;;;;;;5106766;28;20040;-49
2024/02/13 00:06:47;;;;;;;7.72;1.88;;;8.10;99.90;;;;;;5105586;28;20032;-48
2024/02/13 00:09:16;;;;;;;7.68;1.63;;;8.10;99.90;;;;;;5105926;28;20032;-48
2024/02/13 00:11:41;;;;;;;2.67;1.20;;;8.10;99.90;;;;;;5104888;28;20342;-49
2024/02/13 00:14:07;;;;;;;6.43;1.73;;;8.10;99.90;;;;;;5106002;28;20039;-49
2024/02/13 00:16:38;;;;;;;7.05;2.03;;;8.00;99.90;;;;;;5105705;28;20047;-47
2024/02/13 00:19:06;;;;;;;8.85;2.55;;;8.00;99.90;;;;;;5105683;28;20024;-47
2024/02/13 00:21:33;;;;;;;7.63;1.83;;;8.00;99.90;;;;;;5105629;28;20087;-50
2024/02/13 00:23:58;;;;;;;7.60;2.53;;;8.00;99.90;;;;;;5105814;28;20294;-48
2024/02/13 00:26:25;;;;;;;7.30;1.65;;;7.90;99.90;;;;;;5104801;28;20031;-46
2024/02/13 00:28:51;;;;;;;5.47;1.60;;;7.90;99.90;;;;;;5105493;28;20064;-49
2024/02/13 00:31:16;;;;;;;6.72;2.28;;;7.90;99.90;;;;;;5105311;28;20036;-49
2024/02/13 00:33:43;;;;;;;11.32;1.88;;;7.90;99.90;;;;;;5108039;28;20031;-49
2024/02/13 00:36:09;;;;;;;10.90;2.00;;;7.80;99.90;;;;;;5109818;28;20322;-47
2024/02/13 00:38:34;;;;;;;7.75;2.15;;;7.80;99.90;;;;;;5109817;28;20051;-49
2024/02/13 00:41:04;;;;;;;10.05;2.50;;;7.90;99.90;;;;;;5109424;28;20095;-48
2024/02/13 00:43:30;;;;;;;7.75;2.78;;;7.80;99.90;;;;;;5109513;28;20031;-50
2024/02/13 00:45:57;;;;;;;11.75;2.60;;;7.90;99.90;;;;;;5109592;28;20174;-50
2024/02/13 00:48:23;;;;;;;14.25;3.90;;;7.90;99.90;;;;;;5109622;28;20173;-49
2024/02/13 00:50:49;;;;;;;8.48;2.10;;;7.90;99.90;;;;;;5109421;28;20059;-47
2024/02/13 00:53:15;;;;;;;5.07;2.20;;;7.90;99.90;;;;;;5109733;28;20030;-47
2024/02/13 00:55:42;;;;;;;10.60;1.98;;;7.90;99.90;;;;;;5109474;28;20043;-47
2024/02/13 00:58:08;;;;;;;8.77;2.28;;;7.90;99.90;;;;;;5109598;28;20027;-49
2024/02/13 01:00:34;;;;;;;7.53;2.00;;;7.90;99.90;;;;;;5109270;28;20035;-50
2024/02/13 01:03:01;;;;;;;11.85;2.00;;;7.90;99.90;;;;;;5109266;28;20305;-49
2024/02/13 01:05:30;;;;;;;10.23;2.35;;;7.90;99.90;;;;;;5108135;28;20067;-49
2024/02/13 01:07:56;;;;;;;10.38;2.58;;;7.90;99.90;;;;;;5109140;28;20048;-50
2024/02/13 01:10:22;;;;;;;8.38;2.33;;;7.80;99.90;;;;;;5109275;28;20035;-49
2024/02/13 01:12:48;;;;;;;12.82;4.65;;;7.80;99.90;;;;;;5108166;28;20036;-47
2024/02/13 01:15:14;;;;;;;11.77;3.60;;;7.80;99.90;;;;;;5109181;28;20333;-47
2024/02/13 01:17:41;;;;;;;9.75;2.65;;;7.80;99.90;;;;;;5108951;28;20064;-47
2024/02/13 01:20:15;;;;;;;7.57;2.65;;;7.80;99.90;;;;;;5109152;28;20055;-49
2024/02/13 01:22:42;;;;;;;8.13;1.98;;;7.80;99.90;;;;;;5108966;28;20023;-49
2024/02/13 01:25:10;;;;;;;14.65;3.50;;;7.80;99.90;;;;;;5109028;28;20278;-49
2024/02/13 01:27:37;;;;;;;8.30;2.30;;;7.80;99.90;;;;;;5108717;28;20035;-50
2024/02/13 01:30:04;;;;;;;10.88;3.03;;;7.80;99.90;;;;;;5108964;28;20077;-50
2024/02/13 01:32:31;;;;;;;13.32;3.67;;;7.90;99.90;;;;;;5107792;28;20290;-49
2024/02/13 01:34:57;;;;;;;10.80;3.63;;;7.90;99.90;;;;;;5107656;28;20198;-50
2024/02/13 01:37:23;;;;;;;14.20;3.80;;;7.90;99.90;;;;;;5108414;28;20059;-49
2024/02/13 01:39:48;;;;;;;8.73;2.78;;;7.90;99.90;;;;;;5108871;28;20039;-50
2024/02/13 01:42:14;;;;;;;7.95;1.98;;;8.00;99.90;;;;;;5108574;28;20020;-49
2024/02/13 01:44:39;;;;;;;7.43;1.80;;;8.00;99.90;;;;;;5108229;28;20032;-48
2024/02/13 01:47:05;;;;;;;6.70;1.80;;;8.00;99.90;;;;;;5108204;28;20055;-49
2024/02/13 01:49:31;;;;;;;9.38;1.88;;;8.00;99.90;;;;;;5107335;28;20194;-50
2024/02/13 01:51:57;;;;;;;6.97;1.70;;;8.00;99.90;;;;;;5107373;28;20260;-50
2024/02/13 01:54:25;;;;;;;10.55;2.50;;;8.00;99.90;;;;;;5108293;28;20178;-47
2024/02/13 01:56:52;;;;;;;6.05;1.40;;;8.00;99.90;;;;;;5107039;28;20040;-47
2024/02/13 01:59:17;;;;;;;5.15;2.05;;;7.90;99.90;;;;;;5108087;28;20043;-48
2024/02/13 02:01:43;;;;;;;8.48;1.85;;;7.90;99.90;;;;;;5108076;28;20079;-47
2024/02/13 02:04:09;;;;;;;6.88;2.78;;;7.90;99.90;;;;;;5107120;28;20016;-48
2024/02/13 02:06:35;;;;;;;6.13;1.58;;;7.90;99.90;;;;;;5108313;28;20032;-47
2024/02/13 02:09:03;;;;;;;7.07;1.70;;;7.90;99.90;;;;;;5107953;28;20032;-49
2024/02/13 02:11:30;;;;;;;6.32;1.75;;;7.90;99.90;;;;;;5107797;28;20046;-50
2024/02/13 02:13:56;;;;;;;7.18;1.50;;;7.90;99.90;;;;;;5106937;28;20104;-49
2024/02/13 02:16:22;;;;;;;6.10;2.08;;;7.90;99.90;;;;;;5107149;28;20035;-50
2024/02/13 02:18:48;;;;;;;6.97;1.77;;;7.90;99.90;;;;;;5107405;28;20048;-50
2024/02/13 02:21:14;;;;;;;4.72;1.45;;;7.90;99.90;;;;;;5107976;28;20047;-49
2024/02/13 02:23:40;;;;;;;6.20;1.70;;;7.90;99.90;;;;;;5107233;28;20063;-49
2024/02/13 02:26:06;;;;;;;9.88;3.38;;;7.90;99.90;;;;;;5107422;28;20019;-50
2024/02/13 02:28:33;;;;;;;7.18;1.77;;;7.80;99.90;;;;;;5107691;28;20020;-48
2024/02/13 02:30:58;;;;;;;5.82;1.65;;;7.80;99.90;;;;;;5107535;28;20052;-49
2024/02/13 02:33:24;;;;;;;9.98;2.88;;;7.80;99.90;;;;;;5106356;28;20295;-49
2024/02/13 02:35:50;;;;;;;7.15;1.75;;;7.80;99.90;;;;;;5107446;28;20036;-50
2024/02/13 02:38:16;;;;;;;5.72;1.80;;;7.80;99.90;;;;;;5107752;28;20024;-49
2024/02/13 02:40:43;;;;;;;7.30;2.13;;;7.80;99.90;;;;;;5107411;28;20028;-49
2024/02/13 02:43:09;;;;;;;7.10;2.20;;;7.80;99.90;;;;;;5107088;28;20032;-48
2024/02/13 02:45:35;;;;;;;8.15;1.65;;;7.80;99.90;;;;;;5107569;28;20027;-50
2024/02/13 02:48:00;;;;;;;5.85;1.45;;;7.80;99.90;;;;;;5107232;28;20016;-50
2024/02/13 02:50:26;;;;;;;8.68;1.40;;;7.80;99.90;;;;;;5107225;28;20032;-49
2024/02/13 02:52:52;;;;;;;5.18;1.23;;;7.80;99.90;;;;;;5107131;28;20166;-49
2024/02/13 02:55:18;;;;;;;5.68;1.42;;;7.80;99.90;;;;;;5106211;28;20028;-47
2024/02/13 02:57:44;;;;;;;8.45;1.65;;;7.70;99.90;;;;;;5107414;28;20089;-46
2024/02/13 03:00:12;;;;;;;7.85;1.92;;;7.70;99.90;;;;;;5106982;28;20032;-47
2024/02/13 03:02:38;;;;;;;5.55;1.30;;;7.60;99.90;;;;;;5107037;28;20074;-48
2024/02/13 03:05:05;;;;;;;7.30;1.50;;;7.60;99.90;;;;;;5107076;28;20190;-48
2024/02/13 03:07:31;;;;;;;9.30;1.40;;;7.60;99.90;;;;;;5106849;28;20024;-49
2024/02/13 03:09:58;;;;;;;7.22;1.73;;;7.60;99.90;;;;;;5106333;28;20027;-47
2024/02/13 03:12:24;;;;;;;8.48;1.70;;;7.50;99.90;;;;;;5106791;28;20040;-47
2024/02/13 03:14:50;;;;;;;6.18;1.80;;;7.50;99.90;;;;;;5106469;28;20177;-50
2024/02/13 03:17:21;;;;;;;6.78;1.60;;;7.50;99.90;;;;;;5106192;28;20178;-47
2024/02/13 03:19:47;;;;;;;7.05;1.60;;;7.60;99.90;;;;;;5106503;28;20123;-49
2024/02/13 03:22:13;;;;;;;8.07;1.92;;;7.60;99.90;;;;;;5106645;28;20028;-50
2024/02/13 03:24:38;;;;;;;6.43;1.38;;;7.60;99.90;;;;;;5106638;28;20329;-48
2024/02/13 03:27:04;;;;;;;12.40;1.88;;;7.60;99.90;;;;;;5106300;28;20051;-49
2024/02/13 03:29:30;;;;;;;7.78;1.50;;;7.60;99.90;;;;;;5106364;28;20090;-50
2024/02/13 03:31:55;;;;;;;9.80;1.50;;;7.60;99.90;;;;;;5105495;28;20061;-49
2024/02/13 03:34:21;;;;;;;9.20;1.58;;;7.60;99.90;;;;;;5106486;28;20035;-49
2024/02/13 03:36:47;;;;;;;6.50;1.35;;;7.50;99.90;;;;;;5105220;28;20024;-49
2024/02/13 03:39:13;;;;;;;6.72;1.60;;;7.50;99.90;;;;;;5106438;28;20224;-47
2024/02/13 03:41:48;;;;;;;7.75;1.30;;;7.50;99.90;;;;;;5105840;28;20089;-49
2024/02/13 03:44:13;;;;;;;7.40;1.55;;;7.40;99.90;;;;;;5106462;28;20020;-49
2024/02/13 03:46:39;;;;;;;6.25;1.85;;;7.40;99.90;;;;;;5106297;28;20274;-49
2024/02/13 03:49:09;;;;;;;11.35;1.80;;;7.40;99.90;;;;;;5106342;28;20043;-50
2024/02/13 03:51:37;;;;;;;10.30;1.48;;;7.30;99.90;;;;;;5105939;28;20024;-50
2024/02/13 03:54:07;;;;;;;12.70;1.40;;;7.30;99.90;;;;;;5105964;28;20039;-48
2024/02/13 03:56:33;;;;;;;12.10;1.77;;;7.20;99.90;;;;;;5106155;28;20081;-50
2024/02/13 03:58:59;;;;;;;13.57;1.85;;;7.20;99.90;;;;;;5105806;28;20031;-49
2024/02/13 04:01:25;;;;;;;8.23;1.48;;;7.20;99.90;;;;;;5105880;28;20035;-50
2024/02/13 04:03:51;;;;;;;6.93;1.40;;;7.20;99.90;;;;;;5105923;28;20020;-48
2024/02/13 04:06:16;;;;;;;6.75;1.40;;;7.10;99.90;;;;;;5104988;28;20027;-47
2024/02/13 04:08:44;;;;;;;6.35;1.35;;;7.10;99.90;;;;;;5106047;28;20100;-47
2024/02/13 04:11:10;;;;;;;12.68;2.28;;;7.10;99.90;;;;;;5106090;28;20181;-48
2024/02/13 04:13:36;;;;;;;5.75;1.95;;;7.10;99.90;;;;;;5105448;28;20019;-50
2024/02/13 04:16:02;;;;;;;6.80;1.60;;;7.10;99.90;;;;;;5105974;28;20050;-49
2024/02/13 04:18:27;;;;;;;7.95;1.50;;;7.10;99.90;;;;;;5105346;28;20052;-50
2024/02/13 04:20:53;;;;;;;11.32;2.00;;;7.00;99.90;;;;;;5104646;28;20043;-50
2024/02/13 04:23:19;;;;;;;6.68;1.88;;;7.10;99.90;;;;;;5106290;28;20032;-49
2024/02/13 04:25:45;;;;;;;10.07;1.83;;;7.00;99.90;;;;;;5105704;28;20024;-50
2024/02/13 04:28:10;;;;;;;6.72;1.40;;;7.00;99.90;;;;;;5104863;28;20082;-50
2024/02/13 04:30:40;;;;;;;7.38;1.60;;;7.00;99.90;;;;;;5105814;28;20036;-49
2024/02/13 04:33:09;;;;;;;8.15;1.50;;;7.00;99.90;;;;;;5105487;28;20027;-46
2024/02/13 04:35:35;;;;;;;8.93;1.70;;;6.90;99.90;;;;;;5105689;28;20024;-46
2024/02/13 04:38:02;;;;;;;11.82;1.88;;;7.00;99.90;;;;;;5104617;28;20245;-50
2024/02/13 04:40:27;;;;;;;9.38;1.52;;;7.00;99.90;;;;;;5105588;28;20024;-50
2024/02/13 04:42:53;;;;;;;7.97;1.92;;;7.00;99.90;;;;;;5105752;28;20085;-49
2024/02/13 04:45:19;;;;;;;9.82;1.65;;;7.00;99.90;;;;;;5105078;28;20040;-49
2024/02/13 04:47:46;;;;;;;10.43;1.48;;;7.00;99.90;;;;;;5105429;28;20012;-49
2024/02/13 04:50:13;;;;;;;12.23;2.13;;;7.00;99.90;;;;;;5105770;28;20305;-49
2024/02/13 04:52:38;;;;;;;8.63;1.48;;;7.10;99.90;;;;;;5105573;28;20115;-50
2024/02/13 04:55:05;;;;;;;8.38;2.05;;;7.10;99.90;;;;;;5105424;28;20081;-50
2024/02/13 04:57:30;;;;;;;6.78;1.70;;;7.10;99.90;;;;;;5105466;28;20340;-49
2024/02/13 04:59:57;;;;;;;14.75;2.15;;;7.10;99.90;;;;;;5104378;28;20044;-49
2024/02/13 05:02:24;;;;;;;8.93;1.30;;;7.20;99.90;;;;;;5105404;28;20016;-48
2024/02/13 05:07:35;;;;;;;7.38;1.63;;;7.30;99.90;;;;;;5105361;28;20054;-47
2024/02/13 05:10:02;;;;;;;8.55;1.10;;;7.30;99.90;;;;;;5105492;28;20028;-47
2024/02/13 05:12:28;;;;;;;10.02;1.85;;;7.30;99.90;;;;;;5105361;28;20046;-47
2024/02/13 05:14:53;;;;;;;6.50;1.38;;;7.40;99.90;;;;;;5105488;28;20043;-47
2024/02/13 05:17:20;;;;;;;10.55;1.30;;;7.40;99.90;;;;;;5103902;28;20310;-50
2024/02/13 05:19:48;;;;;;;5.68;1.10;;;7.50;99.90;;;;;;5107369;28;20214;-46
2024/02/13 05:22:15;;;;;;;8.07;1.38;;;7.50;99.90;;;;;;5108998;28;20020;-48
2024/02/13 05:24:41;;;;;;;8.57;1.30;;;7.50;99.90;;;;;;5108961;28;20031;-50
2024/02/13 05:27:10;;;;;;;10.38;1.55;;;7.50;99.90;;;;;;5108631;28;20032;-48
2024/02/13 05:29:39;;;;;;;7.37;1.33;;;7.50;99.90;;;;;;5108699;28;20097;-51
2024/02/13 05:32:07;;;;;;;11.57;1.70;;;7.50;99.90;;;;;;5108833;28;20261;-51
2024/02/13 05:34:34;;;;;;;6.07;1.10;;;7.50;99.90;;;;;;5108255;28;20035;-51
2024/02/13 05:37:02;;;;;;;9.55;2.13;;;7.50;99.90;;;;;;5108609;28;20023;-48
2024/02/13 05:39:28;;;;;;;4.28;1.27;;;7.50;99.90;;;;;;5108639;28;20036;-48
2024/02/13 05:41:55;;;;;;;7.30;1.25;;;7.60;99.90;;;;;;5108513;28;20228;-51
2024/02/13 05:44:21;;;;;;;9.57;1.30;;;7.60;99.90;;;;;;5108534;28;20016;-51
2024/02/13 05:46:47;;;;;;;6.75;1.40;;;7.60;99.90;;;;;;5108235;28;20040;-50
2024/02/13 05:49:13;;;;;;;6.05;2.53;;;7.60;99.90;;;;;;5108377;28;20204;-51
2024/02/13 05:51:38;;;;;;;6.88;1.20;;;7.60;99.90;;;;;;5108173;28;20223;-51
2024/02/13 05:54:04;;;;;;;7.63;1.30;;;7.60;99.90;;;;;;5108307;28;20070;-51
2024/02/13 05:56:35;;;;;;;5.35;1.15;;;7.60;99.90;;;;;;5108340;28;20039;-51
2024/02/13 05:59:03;;;;;;;5.88;1.33;;;7.60;99.90;;;;;;5107128;28;20051;-51
2024/02/13 06:01:29;;;;;;;7.88;1.30;;;7.60;99.90;;;;;;5106905;28;20190;-49
2024/02/13 06:03:57;;;;;;;5.30;1.20;;;7.60;99.90;;;;;;5107188;28;20273;-50
2024/02/13 06:06:23;;;;;;;9.15;1.40;;;7.60;99.90;;;;;;5107659;28;20027;-51
2024/02/13 06:08:52;;;;;;;7.50;1.50;;;7.70;99.90;;;;;;5108226;28;20028;-51
2024/02/13 06:11:18;;;;;;;8.75;1.67;;;7.60;99.90;;;;;;5107994;28;20040;-48
2024/02/13 06:13:45;;;;;;;6.05;1.55;;;7.70;99.90;;;;;;5107978;28;20028;-49
2024/02/13 06:16:12;;;;;;;8.82;1.42;;;7.70;99.90;;;;;;5107881;28;20066;-51
2024/02/13 06:18:37;;;;;;;5.32;1.80;;;7.70;99.90;;;;;;5106441;28;20129;-47
2024/02/13 06:21:04;;;;;;;7.53;1.55;;;7.70;99.90;;;;;;5107910;28;20301;-48
2024/02/13 06:23:30;;;;;;;8.57;1.50;;;7.70;99.90;;;;;;5107731;28;20112;-49
2024/02/13 06:25:56;;;;;;;8.93;2.08;;;7.70;99.90;;;;;;5106586;28;20032;-51
2024/02/13 06:28:21;;;;;;;9.88;1.65;;;7.70;99.90;;;;;;5107571;28;20143;-48
2024/02/13 06:30:47;;;;;;;11.13;1.80;;;7.70;99.90;;;;;;5106376;28;20028;-51
2024/02/13 06:33:13;;;;;;;10.25;1.70;;;7.70;99.90;;;;;;5107359;28;20159;-51
2024/02/13 06:35:39;;;;;;;10.82;2.05;;;7.70;99.90;;;;;;5107380;28;20083;-51
2024/02/13 06:38:06;;;;;;;10.50;1.70;;;7.70;99.90;;;;;;5106160;28;20031;-51
2024/02/13 06:40:32;;;;;;;9.35;1.95;;;7.70;99.90;;;;;;5107297;28;20035;-51
2024/02/13 06:42:57;;;;;;;10.35;1.90;;;7.70;99.90;;;;;;5107254;28;20104;-51
2024/02/13 06:45:25;;;;;;;8.52;1.48;;;7.70;99.90;;;;;;5107224;28;20185;-51
2024/02/13 06:47:51;;;;;;;9.90;2.33;;;7.70;99.90;;;;;;5107059;28;20032;-51
2024/02/13 06:50:17;;;;;;;8.40;2.03;;;7.70;99.90;;;;;;5107254;28;20027;-51
2024/02/13 06:52:43;;;;;;;14.20;2.08;;;7.70;99.90;;;;;;5106585;28;20273;-51
2024/02/13 06:55:09;;;;;;;9.35;2.47;;;7.70;99.90;;;;;;5107139;28;20089;-51
2024/02/13 06:57:35;;;;;;;13.77;2.30;;;7.70;99.90;;;;;;5106944;28;20198;-51
2024/02/13 07:00:08;;;;;;;11.70;2.60;;;7.60;99.90;;;;;;5106925;28;20182;-48
2024/02/13 07:02:35;;;;;;;12.88;2.58;;;7.60;99.90;;;;;;5106939;28;20034;-49
2024/02/13 07:05:01;;;;;;;10.35;2.72;;;7.60;99.90;;;;;;5106882;28;20027;-51
2024/02/13 07:07:27;;;;;;;12.30;2.22;;;7.60;99.90;;;;;;5106894;28;20162;-51
2024/02/13 07:09:53;;;;;;;11.80;2.40;;;7.60;99.90;;;;;;5106760;28;20112;-50
2024/02/13 07:12:20;;;;;;;13.88;4.93;;;7.60;99.90;;;;;;5105808;28;20062;-51
2024/02/13 07:14:46;;;;;;;15.80;3.47;;;7.60;99.90;;;;;;5106434;28;20095;-50
2024/02/13 07:17:12;;;;;;;10.02;3.75;;;7.60;99.90;;;;;;5106221;28;20228;-48
2024/02/13 07:19:41;;;;;;;12.00;4.35;;;7.60;99.90;;;;;;5106364;28;20035;-47
2024/02/13 07:22:07;;;;;;;22.25;7.68;;;7.60;99.90;;;;;;5106616;28;20044;-48
2024/02/13 07:24:35;;;;;;;18.90;7.15;;;7.60;99.90;;;;;;5106080;28;20038;-50
2024/02/13 07:27:01;;;;;;;21.10;6.82;;;7.60;99.90;;;;;;5106201;28;20020;-48
2024/02/13 07:29:27;;;;;;;10.57;3.33;;;7.50;99.90;;;;;;5106329;28;20087;-48
2024/02/13 07:31:52;;;;;;;13.45;3.65;;;7.50;99.90;;;;;;5106389;28;20028;-47
2024/02/13 07:34:20;;;;;;;12.90;4.32;;;7.50;99.90;;;;;;5106510;28;20020;-50
2024/02/13 07:36:46;;;;;;;14.38;4.05;;;7.50;99.90;;;;;;5105992;28;20020;-50
2024/02/13 07:39:11;;;;;;;8.65;2.58;;;7.50;99.90;;;;;;5106368;28;20036;-50
2024/02/13 07:41:37;;;;;;;7.70;2.03;;;7.50;99.90;;;;;;5105303;28;20028;-51
2024/02/13 07:44:03;;;;;;;5.50;1.63;;;7.50;99.90;;;;;;5105045;28;20156;-47
2024/02/13 07:46:29;;;;;;;8.15;1.60;;;7.60;99.90;;;;;;5105905;28;20174;-50
2024/02/13 07:48:55;;;;;;;6.00;1.90;;;7.60;99.90;;;;;;5105920;28;20028;-50
2024/02/13 07:51:21;;;;;;;8.20;1.70;;;7.60;99.90;;;;;;5105803;28;20091;-50
2024/02/13 07:53:47;;;;;;;10.93;1.90;;;7.50;99.90;;;;;;5105884;28;20031;-51
2024/02/13 07:56:13;;;;;;;8.45;1.63;;;7.50;99.90;;;;;;5105504;28;20036;-51
2024/02/13 07:58:39;;;;;;;11.02;2.33;;;7.50;99.90;;;;;;5106029;28;20120;-50
2024/02/13 08:01:05;;;;;;;4.68;1.48;;;7.50;99.90;;;;;;5106256;28;20066;-51
2024/02/13 08:03:34;;;;;;;9.40;2.20;;;7.50;99.90;;;;;;5104743;28;20027;-50
2024/02/13 08:06:01;;;;;;;7.63;2.22;;;7.50;99.90;;;;;;5105852;28;20028;-51
2024/02/13 08:08:28;;;;;;;6.78;1.40;;;7.50;99.90;;;;;;5105864;28;20091;-50
2024/02/13 08:10:54;;;;;;;3.38;1.40;;;7.50;99.90;;;;;;5088062;28;20186;-50
2024/02/13 08:13:20;;;;;;;6.22;1.30;;;7.50;99.90;;;;;;5105489;28;20095;-51
2024/02/13 08:15:47;;;;;;;6.13;1.20;;;7.50;99.90;;;;;;5105604;28;20269;-50
2024/02/13 08:18:14;;;;;;;7.03;1.20;;;7.50;99.90;;;;;;5104632;28;20055;-51
2024/02/13 08:20:40;;;;;;;4.95;1.38;;;7.50;99.90;;;;;;5104676;28;20063;-49
2024/02/13 08:23:06;;;;;;;9.52;1.42;;;7.50;99.90;;;;;;5106038;28;20016;-51
2024/02/13 08:25:31;;;;;;;7.78;1.38;;;7.50;99.90;;;;;;5104569;28;20163;-47
2024/02/13 08:27:58;;;;;;;6.80;1.35;;;7.50;99.90;;;;;;5105208;28;20095;-48
2024/02/13 08:30:24;;;;;;;5.63;1.58;;;7.60;99.90;;;;;;5104464;28;20197;-50
2024/02/13 08:32:50;;;;;;;5.05;1.17;;;7.50;99.90;;;;;;5105182;28;20112;-48
2024/02/13 08:35:18;;;;;;;5.60;1.45;;;7.60;99.90;;;;;;5105515;28;20073;-50
2024/02/13 08:37:44;;;;;;;4.80;1.30;;;7.60;99.90;;;;;;5105276;28;20216;-50
2024/02/13 08:40:14;;;;;;;6.80;1.60;;;7.60;99.90;;;;;;5104215;28;20052;-49
2024/02/13 08:42:40;;;;;;;5.70;1.27;;;7.70;99.90;;;;;;5105226;28;20077;-48
2024/02/13 08:45:06;;;;;;;6.68;1.52;;;7.70;99.90;;;;;;5105428;28;20020;-50
2024/02/13 08:47:32;;;;;;;4.18;1.48;;;7.70;99.90;;;;;;5104996;28;20036;-49
2024/02/13 08:49:58;;;;;;;5.25;1.73;;;7.70;99.90;;;;;;5105396;28;20024;-50
2024/02/13 08:52:24;;;;;;;8.43;1.55;;;7.80;99.90;;;;;;5105097;28;20108;-51
2024/02/13 08:54:50;;;;;;;4.70;1.50;;;7.80;99.90;;;;;;5107461;28;20035;-51
2024/02/13 08:57:15;;;;;;;2.25;1.23;;;7.80;99.90;;;;;;5108869;28;20040;-51
2024/02/13 08:59:41;;;;;;;3.70;1.45;;;7.90;99.90;;;;;;5108850;28;20023;-50
2024/02/13 09:02:10;;;;;;;4.70;1.65;;;7.90;99.90;;;;;;5108967;28;20020;-51
2024/02/13 09:04:36;;;;;;;5.78;1.63;;;8.00;99.90;;;;;;5108873;28;20270;-51
2024/02/13 09:07:02;;;;;;;9.40;1.30;;;8.10;99.90;;;;;;5108857;28;20073;-51
2024/02/13 09:09:32;;;;;;;4.00;1.30;;;8.10;99.90;;;;;;5108845;28;20107;-50
2024/02/13 09:12:02;;;;;;;6.10;1.15;;;8.20;99.90;;;;;;5108941;28;20185;-51
2024/02/13 09:14:31;;;;;;;5.78;1.85;;;8.20;99.90;;;;;;5108862;28;20372;-50
2024/02/13 09:16:59;;;;;;;5.07;1.35;;;8.20;99.90;;;;;;5108509;28;20104;-51
2024/02/13 09:19:25;;;;;;;9.35;3.30;;;8.20;99.90;;;;;;5107542;28;20024;-51
2024/02/13 09:21:51;;;;;;;7.68;2.95;;;8.20;99.90;;;;;;5108617;28;20024;-51
2024/02/13 09:24:17;;;;;;;12.85;3.58;;;8.20;99.90;;;;;;5108803;28;20027;-51
2024/02/13 09:26:43;;;;;;;13.88;6.43;;;8.30;99.90;;;;;;5108172;28;20039;-51
2024/02/13 09:29:08;;;;;;;17.65;5.50;;;8.30;99.90;;;;;;5108426;28;20012;-51
2024/02/13 09:31:34;;;;;;;10.80;4.20;;;8.30;99.90;;;;;;5108332;28;20282;-51
2024/02/13 09:34:00;;;;;;;10.43;4.07;;;8.30;99.90;;;;;;5108392;28;20051;-48
2024/02/13 09:36:27;;;;;;;12.77;4.40;;;8.30;99.90;;;;;;5090303;28;20032;-48
2024/02/13 09:38:53;;;;;;;13.63;4.07;;;8.30;99.90;;;;;;5108381;28;20100;-50
2024/02/13 09:41:18;;;;;;;6.22;2.22;;;8.30;99.90;;;;;;5108233;28;20016;-49
2024/02/13 09:43:45;;;;;;;6.22;1.92;;;8.40;99.90;;;;;;5108190;28;20023;-49
2024/02/13 09:46:12;;;;;;;9.45;1.73;;;8.40;99.90;;;;;;5108099;28;20049;-50
2024/02/13 09:48:37;;;;;;;8.07;2.60;;;8.40;99.90;;;;;;5106912;28;20307;-51
2024/02/13 09:51:08;;;;;;;8.43;2.42;;;8.40;99.90;;;;;;5107694;28;20028;-50
2024/02/13 09:53:36;;;;;;;7.32;2.83;;;8.50;99.90;;;;;;5107640;28;20042;-50
2024/02/13 09:56:02;;;;;;;6.88;1.90;;;8.50;99.90;;;;;;5107880;28;20024;-50
2024/02/13 09:58:29;;;;;;;5.47;1.65;;;8.60;99.90;;;;;;5106993;28;20301;-50
2024/02/13 10:00:55;;;;;;;2.30;0.93;;;8.60;99.90;;;;;;5107002;28;20042;-50
2024/02/13 10:03:20;;;;;;;4.90;1.55;;;8.60;99.90;;;;;;5107356;28;20016;-50
2024/02/13 10:05:46;;;;;;;5.20;1.10;;;8.60;99.90;;;;;;5107270;28;20024;-51
2024/02/13 10:08:12;;;;;;;3.67;1.00;;;8.60;99.90;;;;;;5107918;28;20040;-48
2024/02/13 10:10:38;;;;;;;4.80;1.50;;;8.70;99.90;;;;;;5106275;28;20058;-49
2024/02/13 10:13:05;;;;;;;6.88;1.80;;;8.70;99.90;;;;;;5107500;28;20028;-51
2024/02/13 10:15:40;;;;;;;5.05;1.73;;;8.60;99.90;;;;;;5107664;28;20042;-50
2024/02/13 10:18:13;;;;;;;4.43;1.45;;;8.60;99.90;;;;;;5105889;28;20309;-49
2024/02/13 10:20:42;;;;;;;3.58;1.20;;;8.70;99.90;;;;;;5107389;28;20352;-50
2024/02/13 10:23:11;;;;;;;4.28;1.30;;;8.70;99.90;;;;;;5107143;28;20045;-50
2024/02/13 10:25:37;;;;;;;2.33;0.80;;;8.70;99.90;;;;;;5105948;28;20074;-49
2024/02/13 10:28:05;;;;;;;3.28;0.80;;;8.70;99.90;;;;;;5107508;28;20035;-50
2024/02/13 10:30:31;;;;;;;3.58;0.90;;;8.70;99.90;;;;;;5106388;28;20337;-51
2024/02/13 10:33:01;;;;;;;3.10;0.90;;;8.70;99.90;;;;;;5107108;28;20086;-49
2024/02/13 10:35:29;;;;;;;4.22;0.98;;;8.70;99.90;;;;;;5106196;28;20163;-50
2024/02/13 10:37:55;;;;;;;2.95;0.82;;;8.70;99.90;;;;;;5107275;28;20028;-50
2024/02/13 10:40:22;;;;;;;3.75;1.23;;;8.70;99.90;;;;;;5106888;28;20032;-49
2024/02/13 10:42:49;;;;;;;3.20;0.90;;;8.70;99.90;;;;;;5106655;28;20058;-48
2024/02/13 10:45:17;;;;;;;3.55;1.02;;;8.80;99.90;;;;;;5089129;28;20028;-47
2024/02/13 10:47:51;;;;;;;3.10;1.00;;;8.90;99.90;;;;;;5107180;28;20024;-47
2024/02/13 10:50:17;;;;;;;3.60;0.90;;;9.00;99.90;;;;;;5107149;28;20232;-47
2024/02/13 10:52:44;;;;;;;2.28;0.80;;;9.10;99.90;;;;;;5105715;28;20024;-49
2024/02/13 10:55:12;;;;;;;3.33;0.88;;;9.10;99.90;;;;;;5105640;28;20182;-49
2024/02/13 10:57:37;;;;;;;2.45;0.90;;;9.10;99.90;;;;;;5106799;28;20040;-50
2024/02/13 11:00:10;;;;;;;2.28;1.05;;;9.10;99.90;;;;;;5106615;28;20087;-49
2024/02/13 11:02:39;;;;;;;5.45;1.80;;;9.10;99.90;;;;;;5105786;28;20015;-50
2024/02/13 11:05:08;;;;;;;4.78;1.50;;;9.10;99.90;;;;;;5105666;28;20020;-50
2024/02/13 11:07:34;;;;;;;3.78;1.63;;;9.00;99.90;;;;;;5105727;28;20024;-50
2024/02/13 11:10:00;;;;;;;6.18;1.92;;;8.90;99.90;;;;;;5106635;28;20051;-51
2024/02/13 11:12:26;;;;;;;9.30;3.22;;;8.90;99.90;;;;;;5106387;28;20036;-48
2024/02/13 11:14:51;;;;;;;12.50;3.88;;;8.90;99.90;;;;;;5106301;28;20028;-50
2024/02/13 11:17:17;;;;;;;7.47;2.70;;;8.90;99.90;;;;;;5105308;28;20052;-50
2024/02/13 11:19:45;;;;;;;11.10;3.05;;;8.90;99.90;;;;;;5105220;28;20035;-51
2024/02/13 11:22:15;;;;;;;5.50;1.30;;;9.00;99.90;;;;;;5106873;28;20241;-48
2024/02/13 11:24:52;;;;;;;7.25;2.45;;;9.00;99.90;;;;;;5105853;28;20095;-50
2024/02/13 11:27:23;;;;;;;2.97;1.25;;;9.00;99.90;;;;;;5106027;28;20028;-49
2024/02/13 11:29:59;;;;;;;32.75;17.15;;;9.10;99.90;;;;;;5105993;28;20039;-51
2024/02/13 11:32:25;;;;;;;5.68;2.60;;;9.10;99.90;;;;;;5105007;28;20349;-50
2024/02/13 11:34:53;;;;;;;5.90;2.40;;;9.20;99.90;;;;;;5106016;28;20032;-50
2024/02/13 11:37:20;;;;;;;201.10;122.60;;;9.20;99.90;;;;;;5104653;28;20055;-48
2024/02/13 11:39:49;;;;;;;40.08;30.38;;;9.20;99.90;;;;;;5104587;28;20039;-50
2024/02/13 11:42:18;;;;;;;68.47;35.65;;;9.30;99.90;;;;;;5104215;28;20259;-50
2024/02/13 11:44:44;;;;;;;21.35;15.50;;;9.40;99.90;;;;;;5104949;28;20027;-50
2024/02/13 11:47:10;;;;;;;75.60;40.22;;;9.50;99.90;;;;;;5105344;28;20107;-50
2024/02/13 11:49:36;;;;;;;4.70;2.53;;;9.60;99.90;;;;;;5105540;28;20031;-50
2024/02/13 11:52:03;;;;;;;5.00;2.35;;;9.60;99.90;;;;;;5104633;28;20095;-48
2024/02/13 11:54:32;;;;;;;4.45;1.40;;;9.70;99.90;;;;;;5105679;28;20040;-48
2024/02/13 11:56:58;;;;;;;4.43;2.30;;;9.80;99.90;;;;;;5105664;28;20028;-50
2024/02/13 11:59:24;;;;;;;4.38;1.30;;;9.90;99.90;;;;;;5104853;28;20315;-50
2024/02/13 12:01:50;;;;;;;4.78;1.63;;;9.90;99.90;;;;;;5104563;28;20016;-50
2024/02/13 12:04:17;;;;;;;3.40;0.90;;;10.10;99.90;;;;;;5104287;28;20089;-50
2024/02/13 12:06:47;;;;;;;2.75;0.85;;;10.00;99.90;;;;;;5105304;28;20042;-50
2024/02/13 12:09:15;;;;;;;1.40;0.90;;;10.00;99.90;;;;;;5104644;28;20074;-50
2024/02/13 12:11:41;;;;;;;2.33;1.10;;;10.20;99.90;;;;;;5104198;28;20031;-50
2024/02/13 12:14:06;;;;;;;3.30;1.10;;;10.30;99.90;;;;;;5105446;28;20050;-50
2024/02/13 12:16:32;;;;;;;1.33;0.88;;;10.40;99.90;;;;;;5087130;28;20047;-50
2024/02/13 12:18:59;;;;;;;1.50;0.80;;;10.40;99.90;;;;;;5105183;28;20054;-51
2024/02/13 12:21:26;;;;;;;1.45;0.90;;;10.30;99.90;;;;;;5105056;28;20040;-53
2024/02/13 12:23:53;;;;;;;2.47;1.13;;;10.30;99.90;;;;;;5105281;28;20020;-51
2024/02/13 12:26:19;;;;;;;75.10;38.03;;;10.40;99.90;;;;;;5105434;28;20020;-50
2024/02/13 12:28:55;;;;;;;4.72;2.08;;;10.40;99.90;;;;;;5105918;28;20035;-51
2024/02/13 12:31:22;;;;;;;3.75;2.65;;;10.40;99.90;;;;;;5109367;28;20058;-48
2024/02/13 12:33:48;;;;;;;7.05;4.60;;;10.50;99.90;;;;;;5108443;28;20050;-51
2024/02/13 12:36:21;;;;;;;1.45;1.00;;;10.60;99.90;;;;;;5108688;28;20019;-51
2024/02/13 12:38:47;;;;;;;2.05;1.10;;;10.70;99.90;;;;;;5108422;28;20027;-51
2024/02/13 12:41:13;;;;;;;12.13;11.00;;;10.80;99.90;;;;;;5109087;28;20051;-51
2024/02/13 12:43:41;;;;;;;3.20;1.23;;;11.00;99.90;;;;;;5108037;28;20019;-50
2024/02/13 12:46:06;;;;;;;3.97;0.90;;;11.20;99.90;;;;;;5108992;28;20238;-51
2024/02/13 12:48:36;;;;;;;0.98;0.75;;;11.10;99.90;;;;;;5109104;28;20080;-50
2024/02/13 12:51:02;;;;;;;1.33;1.23;;;11.20;99.90;;;;;;5108272;28;20056;-50
2024/02/13 12:53:34;;;;;;;0.60;0.60;;;11.30;99.90;;;;;;5108064;28;20324;-51